sensor_id;sensor_type;location;lat;lon;timestamp;temperature;humidity
35559;DHT22;21661;50.794;-1.066;2022-12-07T00:00:27;5.40;99.90
35559;DHT22;21661;50.794;-1.066;2022-12-07T00:02:52;5.30;99.90
35559;DHT22;21661;50.794;-1.066;2022-12-07T00:05:18;5.30;99.90
35559;DHT22;21661;50.794;-1.066;2022-12-07T00:07:43;5.20;99.90
35559;DHT22;21661;50.794;-1.066;2022-12-07T00:10:09;5.20;99.90
35559;DHT22;21661;50.794;-1.066;2022-12-07T00:12:35;5.20;99.90
35559;DHT22;21661;50.794;-1.066;2022-12-07T00:15:00;5.20;99.90
35559;DHT22;21661;50.794;-1.066;2022-12-07T00:17:26;5.10;99.90
35559;DHT22;21661;50.794;-1.066;2022-12-07T00:19:51;5.00;99.90
35559;DHT22;21661;50.794;-1.066;2022-12-07T00:22:17;5.00;99.90
35559;DHT22;21661;50.794;-1.066;2022-12-07T00:24:43;5.00;99.90
35559;DHT22;21661;50.794;-1.066;2022-12-07T00:27:08;5.00;99.90
35559;DHT22;21661;50.794;-1.066;2022-12-07T00:29:34;5.00;99.90
35559;DHT22;21661;50.794;-1.066;2022-12-07T00:31:59;5.10;99.90
35559;DHT22;21661;50.794;-1.066;2022-12-07T00:34:25;5.20;99.90
35559;DHT22;21661;50.794;-1.066;2022-12-07T00:36:50;5.20;99.90
35559;DHT22;21661;50.794;-1.066;2022-12-07T00:39:16;5.10;99.90
35559;DHT22;21661;50.794;-1.066;2022-12-07T00:41:42;5.10;99.90
35559;DHT22;21661;50.794;-1.066;2022-12-07T00:44:07;5.10;99.90
35559;DHT22;21661;50.794;-1.066;2022-12-07T00:46:33;5.10;99.90
35559;DHT22;21661;50.794;-1.066;2022-12-07T00:48:59;5.00;99.90
35559;DHT22;21661;50.794;-1.066;2022-12-07T00:51:25;5.10;99.90
35559;DHT22;21661;50.794;-1.066;2022-12-07T00:53:51;5.00;99.90
35559;DHT22;21661;50.794;-1.066;2022-12-07T00:56:20;5.00;99.90
35559;DHT22;21661;50.794;-1.066;2022-12-07T00:58:52;4.90;99.90
35559;DHT22;21661;50.794;-1.066;2022-12-07T01:01:18;4.80;99.90
35559;DHT22;21661;50.794;-1.066;2022-12-07T01:03:43;4.80;99.90
35559;DHT22;21661;50.794;-1.066;2022-12-07T01:06:09;4.80;99.90
35559;DHT22;21661;50.794;-1.066;2022-12-07T01:08:34;4.80;99.90
35559;DHT22;21661;50.794;-1.066;2022-12-07T01:11:06;4.80;99.90
35559;DHT22;21661;50.794;-1.066;2022-12-07T01:13:33;4.80;99.90
35559;DHT22;21661;50.794;-1.066;2022-12-07T01:16:00;4.80;99.90
35559;DHT22;21661;50.794;-1.066;2022-12-07T01:18:28;4.80;99.90
35559;DHT22;21661;50.794;-1.066;2022-12-07T01:20:59;4.80;99.90
35559;DHT22;21661;50.794;-1.066;2022-12-07T01:23:25;4.90;99.90
35559;DHT22;21661;50.794;-1.066;2022-12-07T01:25:58;4.90;99.90
35559;DHT22;21661;50.794;-1.066;2022-12-07T01:28:24;4.90;99.90
35559;DHT22;21661;50.794;-1.066;2022-12-07T01:30:58;4.90;99.90
35559;DHT22;21661;50.794;-1.066;2022-12-07T01:33:23;4.90;99.90
35559;DHT22;21661;50.794;-1.066;2022-12-07T01:35:49;4.90;99.90
35559;DHT22;21661;50.794;-1.066;2022-12-07T01:38:15;5.00;99.90
35559;DHT22;21661;50.794;-1.066;2022-12-07T01:40:40;5.00;99.90
35559;DHT22;21661;50.794;-1.066;2022-12-07T01:43:27;5.00;99.90
35559;DHT22;21661;50.794;-1.066;2022-12-07T01:45:52;5.00;99.90
35559;DHT22;21661;50.794;-1.066;2022-12-07T01:48:26;4.90;99.90
35559;DHT22;21661;50.794;-1.066;2022-12-07T01:50:53;4.90;99.90
35559;DHT22;21661;50.794;-1.066;2022-12-07T01:53:21;4.90;99.90
35559;DHT22;21661;50.794;-1.066;2022-12-07T01:55:52;4.90;99.90
35559;DHT22;21661;50.794;-1.066;2022-12-07T01:58:19;5.00;99.90
35559;DHT22;21661;50.794;-1.066;2022-12-07T02:00:45;5.00;99.90
35559;DHT22;21661;50.794;-1.066;2022-12-07T02:03:22;5.00;99.90
35559;DHT22;21661;50.794;-1.066;2022-12-07T02:05:50;5.10;99.90
35559;DHT22;21661;50.794;-1.066;2022-12-07T02:08:17;5.00;99.90
35559;DHT22;21661;50.794;-1.066;2022-12-07T02:10:42;5.00;99.90
35559;DHT22;21661;50.794;-1.066;2022-12-07T02:13:13;5.10;99.90
35559;DHT22;21661;50.794;-1.066;2022-12-07T02:21:00;5.00;99.90
35559;DHT22;21661;50.794;-1.066;2022-12-07T02:24:10;5.00;99.90
35559;DHT22;21661;50.794;-1.066;2022-12-07T02:26:50;4.90;99.90
35559;DHT22;21661;50.794;-1.066;2022-12-07T02:31:55;4.90;99.90
35559;DHT22;21661;50.794;-1.066;2022-12-07T02:36:57;4.90;99.90
35559;DHT22;21661;50.794;-1.066;2022-12-07T02:41:58;5.10;99.90
35559;DHT22;21661;50.794;-1.066;2022-12-07T02:44:28;5.10;99.90
35559;DHT22;21661;50.794;-1.066;2022-12-07T02:47:05;5.10;99.90
35559;DHT22;21661;50.794;-1.066;2022-12-07T02:49:32;5.10;99.90
35559;DHT22;21661;50.794;-1.066;2022-12-07T02:51:57;5.10;99.90
35559;DHT22;21661;50.794;-1.066;2022-12-07T02:54:23;5.10;99.90
35559;DHT22;21661;50.794;-1.066;2022-12-07T03:10:17;5.20;99.90
35559;DHT22;21661;50.794;-1.066;2022-12-07T03:13:18;5.30;99.90
35559;DHT22;21661;50.794;-1.066;2022-12-07T03:18:24;5.40;99.90
35559;DHT22;21661;50.794;-1.066;2022-12-07T03:20:54;5.30;99.90
35559;DHT22;21661;50.794;-1.066;2022-12-07T03:23:23;5.30;99.90
35559;DHT22;21661;50.794;-1.066;2022-12-07T03:25:54;5.30;99.90
35559;DHT22;21661;50.794;-1.066;2022-12-07T03:28:22;5.30;99.90
35559;DHT22;21661;50.794;-1.066;2022-12-07T03:30:56;5.20;99.90
35559;DHT22;21661;50.794;-1.066;2022-12-07T03:33:30;5.20;99.90
35559;DHT22;21661;50.794;-1.066;2022-12-07T03:36:10;5.20;99.90
35559;DHT22;21661;50.794;-1.066;2022-12-07T03:38:55;5.20;99.90
35559;DHT22;21661;50.794;-1.066;2022-12-07T03:41:29;5.20;99.90
35559;DHT22;21661;50.794;-1.066;2022-12-07T03:43:56;5.20;99.90
35559;DHT22;21661;50.794;-1.066;2022-12-07T03:46:41;5.10;99.90
35559;DHT22;21661;50.794;-1.066;2022-12-07T03:49:17;5.00;99.90
35559;DHT22;21661;50.794;-1.066;2022-12-07T03:51:51;4.90;99.90
35559;DHT22;21661;50.794;-1.066;2022-12-07T03:54:24;4.90;99.90
35559;DHT22;21661;50.794;-1.066;2022-12-07T03:56:52;4.90;99.90
35559;DHT22;21661;50.794;-1.066;2022-12-07T03:59:20;4.90;99.90
35559;DHT22;21661;50.794;-1.066;2022-12-07T04:01:53;4.80;99.90
35559;DHT22;21661;50.794;-1.066;2022-12-07T04:04:19;4.80;99.90
35559;DHT22;21661;50.794;-1.066;2022-12-07T04:06:45;4.90;99.90
35559;DHT22;21661;50.794;-1.066;2022-12-07T04:09:11;4.90;99.90
35559;DHT22;21661;50.794;-1.066;2022-12-07T04:11:36;5.00;99.90
35559;DHT22;21661;50.794;-1.066;2022-12-07T04:14:02;5.00;99.90
35559;DHT22;21661;50.794;-1.066;2022-12-07T04:16:47;5.00;99.90
35559;DHT22;21661;50.794;-1.066;2022-12-07T04:19:13;5.10;99.90
35559;DHT22;21661;50.794;-1.066;2022-12-07T04:21:39;5.20;99.90
35559;DHT22;21661;50.794;-1.066;2022-12-07T04:24:05;5.20;99.90
35559;DHT22;21661;50.794;-1.066;2022-12-07T04:26:31;5.20;99.90
35559;DHT22;21661;50.794;-1.066;2022-12-07T04:28:56;5.30;99.90
35559;DHT22;21661;50.794;-1.066;2022-12-07T04:31:22;5.30;99.90
35559;DHT22;21661;50.794;-1.066;2022-12-07T04:33:48;5.30;99.90
35559;DHT22;21661;50.794;-1.066;2022-12-07T04:36:14;5.30;99.90
35559;DHT22;21661;50.794;-1.066;2022-12-07T04:38:39;5.40;99.90
35559;DHT22;21661;50.794;-1.066;2022-12-07T04:41:06;5.30;99.90
35559;DHT22;21661;50.794;-1.066;2022-12-07T04:43:32;5.30;99.90
35559;DHT22;21661;50.794;-1.066;2022-12-07T04:45:58;5.30;99.90
35559;DHT22;21661;50.794;-1.066;2022-12-07T04:48:24;5.30;99.90
35559;DHT22;21661;50.794;-1.066;2022-12-07T04:50:49;5.30;99.90
35559;DHT22;21661;50.794;-1.066;2022-12-07T04:53:15;5.20;99.90
35559;DHT22;21661;50.794;-1.066;2022-12-07T04:55:41;5.20;99.90
35559;DHT22;21661;50.794;-1.066;2022-12-07T04:58:06;5.20;99.90
35559;DHT22;21661;50.794;-1.066;2022-12-07T05:00:32;5.30;99.90
35559;DHT22;21661;50.794;-1.066;2022-12-07T05:02:58;5.30;99.90
35559;DHT22;21661;50.794;-1.066;2022-12-07T05:05:23;5.30;99.90
35559;DHT22;21661;50.794;-1.066;2022-12-07T05:07:49;5.30;99.90
35559;DHT22;21661;50.794;-1.066;2022-12-07T05:10:15;5.40;99.90
35559;DHT22;21661;50.794;-1.066;2022-12-07T05:12:41;5.30;99.90
35559;DHT22;21661;50.794;-1.066;2022-12-07T05:15:07;5.30;99.90
35559;DHT22;21661;50.794;-1.066;2022-12-07T05:17:32;5.30;99.90
35559;DHT22;21661;50.794;-1.066;2022-12-07T05:19:58;5.20;99.90
35559;DHT22;21661;50.794;-1.066;2022-12-07T05:22:23;5.10;99.90
35559;DHT22;21661;50.794;-1.066;2022-12-07T05:24:53;5.10;99.90
35559;DHT22;21661;50.794;-1.066;2022-12-07T05:27:19;5.20;99.90
35559;DHT22;21661;50.794;-1.066;2022-12-07T05:29:45;5.10;99.90
35559;DHT22;21661;50.794;-1.066;2022-12-07T05:32:10;5.10;99.90
35559;DHT22;21661;50.794;-1.066;2022-12-07T05:34:36;5.00;99.90
35559;DHT22;21661;50.794;-1.066;2022-12-07T05:37:02;5.10;99.90
35559;DHT22;21661;50.794;-1.066;2022-12-07T05:39:27;5.10;99.90
35559;DHT22;21661;50.794;-1.066;2022-12-07T05:41:53;5.10;99.90
35559;DHT22;21661;50.794;-1.066;2022-12-07T05:44:37;5.10;99.90
35559;DHT22;21661;50.794;-1.066;2022-12-07T05:47:03;5.10;99.90
35559;DHT22;21661;50.794;-1.066;2022-12-07T05:49:28;5.10;99.90
35559;DHT22;21661;50.794;-1.066;2022-12-07T05:51:54;5.10;99.90
35559;DHT22;21661;50.794;-1.066;2022-12-07T05:54:19;5.10;99.90
35559;DHT22;21661;50.794;-1.066;2022-12-07T05:56:45;5.10;99.90
35559;DHT22;21661;50.794;-1.066;2022-12-07T05:59:11;5.20;99.90
35559;DHT22;21661;50.794;-1.066;2022-12-07T06:01:59;5.20;99.90
35559;DHT22;21661;50.794;-1.066;2022-12-07T06:04:27;5.20;99.90
35559;DHT22;21661;50.794;-1.066;2022-12-07T06:06:53;5.10;99.90
35559;DHT22;21661;50.794;-1.066;2022-12-07T06:09:20;5.10;99.90
35559;DHT22;21661;50.794;-1.066;2022-12-07T06:11:46;5.10;99.90
35559;DHT22;21661;50.794;-1.066;2022-12-07T06:14:30;5.00;99.90
35559;DHT22;21661;50.794;-1.066;2022-12-07T06:16:56;5.00;99.90
35559;DHT22;21661;50.794;-1.066;2022-12-07T06:19:22;5.00;99.90
35559;DHT22;21661;50.794;-1.066;2022-12-07T06:21:47;5.00;99.90
35559;DHT22;21661;50.794;-1.066;2022-12-07T06:24:14;5.10;99.90
35559;DHT22;21661;50.794;-1.066;2022-12-07T06:26:41;5.00;99.90
35559;DHT22;21661;50.794;-1.066;2022-12-07T06:29:06;5.00;99.90
35559;DHT22;21661;50.794;-1.066;2022-12-07T06:31:32;5.00;99.90
35559;DHT22;21661;50.794;-1.066;2022-12-07T06:33:59;5.00;99.90
35559;DHT22;21661;50.794;-1.066;2022-12-07T06:36:25;5.10;99.90
35559;DHT22;21661;50.794;-1.066;2022-12-07T06:38:50;5.10;99.90
35559;DHT22;21661;50.794;-1.066;2022-12-07T06:41:16;5.10;99.90
35559;DHT22;21661;50.794;-1.066;2022-12-07T06:43:42;5.20;99.90
35559;DHT22;21661;50.794;-1.066;2022-12-07T06:46:07;5.10;99.90
35559;DHT22;21661;50.794;-1.066;2022-12-07T06:48:33;5.10;99.90
35559;DHT22;21661;50.794;-1.066;2022-12-07T06:50:59;5.00;99.90
35559;DHT22;21661;50.794;-1.066;2022-12-07T06:53:24;5.10;99.90
35559;DHT22;21661;50.794;-1.066;2022-12-07T06:55:50;5.20;99.90
35559;DHT22;21661;50.794;-1.066;2022-12-07T06:58:16;5.20;99.90
35559;DHT22;21661;50.794;-1.066;2022-12-07T07:00:42;5.30;99.90
35559;DHT22;21661;50.794;-1.066;2022-12-07T07:03:08;5.20;99.90
35559;DHT22;21661;50.794;-1.066;2022-12-07T07:05:34;5.20;99.90
35559;DHT22;21661;50.794;-1.066;2022-12-07T07:08:00;5.30;99.90
35559;DHT22;21661;50.794;-1.066;2022-12-07T07:10:25;5.30;99.90
35559;DHT22;21661;50.794;-1.066;2022-12-07T07:12:51;5.20;99.90
35559;DHT22;21661;50.794;-1.066;2022-12-07T07:15:16;5.30;99.90
35559;DHT22;21661;50.794;-1.066;2022-12-07T07:17:42;5.30;99.90
35559;DHT22;21661;50.794;-1.066;2022-12-07T07:20:08;5.30;99.90
35559;DHT22;21661;50.794;-1.066;2022-12-07T07:22:34;5.30;99.90
35559;DHT22;21661;50.794;-1.066;2022-12-07T07:25:00;5.30;99.90
35559;DHT22;21661;50.794;-1.066;2022-12-07T07:27:25;5.20;99.90
35559;DHT22;21661;50.794;-1.066;2022-12-07T07:29:51;5.20;99.90
35559;DHT22;21661;50.794;-1.066;2022-12-07T07:32:16;5.30;99.90
35559;DHT22;21661;50.794;-1.066;2022-12-07T07:34:42;5.20;99.90
35559;DHT22;21661;50.794;-1.066;2022-12-07T07:37:08;5.10;99.90
35559;DHT22;21661;50.794;-1.066;2022-12-07T07:39:33;5.00;99.90
35559;DHT22;21661;50.794;-1.066;2022-12-07T07:41:59;5.00;99.90
35559;DHT22;21661;50.794;-1.066;2022-12-07T07:44:24;4.90;99.90
35559;DHT22;21661;50.794;-1.066;2022-12-07T07:46:50;5.00;99.90
35559;DHT22;21661;50.794;-1.066;2022-12-07T07:49:16;4.90;99.90
35559;DHT22;21661;50.794;-1.066;2022-12-07T07:51:41;4.90;99.90
35559;DHT22;21661;50.794;-1.066;2022-12-07T07:54:07;4.80;99.90
35559;DHT22;21661;50.794;-1.066;2022-12-07T07:56:32;4.80;99.90
35559;DHT22;21661;50.794;-1.066;2022-12-07T07:58:58;4.80;99.90
35559;DHT22;21661;50.794;-1.066;2022-12-07T08:01:23;4.90;99.90
35559;DHT22;21661;50.794;-1.066;2022-12-07T08:03:49;4.90;99.90
35559;DHT22;21661;50.794;-1.066;2022-12-07T08:06:15;4.90;99.90
35559;DHT22;21661;50.794;-1.066;2022-12-07T08:08:41;4.90;99.90
35559;DHT22;21661;50.794;-1.066;2022-12-07T08:11:08;4.90;99.90
35559;DHT22;21661;50.794;-1.066;2022-12-07T08:13:34;4.90;99.90
35559;DHT22;21661;50.794;-1.066;2022-12-07T08:16:08;4.90;99.90
35559;DHT22;21661;50.794;-1.066;2022-12-07T08:18:38;4.90;99.90
35559;DHT22;21661;50.794;-1.066;2022-12-07T08:21:06;4.90;99.90
35559;DHT22;21661;50.794;-1.066;2022-12-07T08:23:32;4.90;99.90
35559;DHT22;21661;50.794;-1.066;2022-12-07T08:26:11;4.90;99.90
35559;DHT22;21661;50.794;-1.066;2022-12-07T08:28:38;4.90;99.90
35559;DHT22;21661;50.794;-1.066;2022-12-07T08:31:06;4.80;99.90
35559;DHT22;21661;50.794;-1.066;2022-12-07T08:33:33;4.90;99.90
35559;DHT22;21661;50.794;-1.066;2022-12-07T08:36:03;4.80;99.90
35559;DHT22;21661;50.794;-1.066;2022-12-07T08:38:29;4.80;99.90
35559;DHT22;21661;50.794;-1.066;2022-12-07T08:40:59;4.80;99.90
35559;DHT22;21661;50.794;-1.066;2022-12-07T08:43:25;4.80;99.90
35559;DHT22;21661;50.794;-1.066;2022-12-07T08:46:15;4.90;99.90
35559;DHT22;21661;50.794;-1.066;2022-12-07T08:48:52;4.90;99.90
35559;DHT22;21661;50.794;-1.066;2022-12-07T08:51:21;4.90;99.90
35559;DHT22;21661;50.794;-1.066;2022-12-07T08:53:49;4.90;99.90
35559;DHT22;21661;50.794;-1.066;2022-12-07T08:56:15;4.90;99.90
35559;DHT22;21661;50.794;-1.066;2022-12-07T08:58:41;4.90;99.90
35559;DHT22;21661;50.794;-1.066;2022-12-07T09:01:07;4.90;99.90
35559;DHT22;21661;50.794;-1.066;2022-12-07T09:03:33;4.90;99.90
35559;DHT22;21661;50.794;-1.066;2022-12-07T09:05:59;4.90;99.90
35559;DHT22;21661;50.794;-1.066;2022-12-07T09:08:33;4.90;99.90
35559;DHT22;21661;50.794;-1.066;2022-12-07T09:11:00;4.90;99.90
35559;DHT22;21661;50.794;-1.066;2022-12-07T09:13:25;4.80;99.90
35559;DHT22;21661;50.794;-1.066;2022-12-07T09:15:51;4.80;99.90
35559;DHT22;21661;50.794;-1.066;2022-12-07T09:18:17;4.80;99.90
35559;DHT22;21661;50.794;-1.066;2022-12-07T09:20:42;4.90;99.90
35559;DHT22;21661;50.794;-1.066;2022-12-07T09:23:08;4.90;99.90
35559;DHT22;21661;50.794;-1.066;2022-12-07T09:25:34;4.90;99.90
35559;DHT22;21661;50.794;-1.066;2022-12-07T09:28:00;4.90;99.90
35559;DHT22;21661;50.794;-1.066;2022-12-07T09:30:26;4.80;99.90
35559;DHT22;21661;50.794;-1.066;2022-12-07T09:32:53;4.80;99.90
35559;DHT22;21661;50.794;-1.066;2022-12-07T09:35:19;4.80;99.90
35559;DHT22;21661;50.794;-1.066;2022-12-07T09:37:45;4.80;99.90
35559;DHT22;21661;50.794;-1.066;2022-12-07T09:40:11;4.80;99.90
35559;DHT22;21661;50.794;-1.066;2022-12-07T09:42:44;4.90;99.90
35559;DHT22;21661;50.794;-1.066;2022-12-07T09:45:27;4.90;99.90
35559;DHT22;21661;50.794;-1.066;2022-12-07T09:47:55;5.00;99.90
35559;DHT22;21661;50.794;-1.066;2022-12-07T09:50:25;5.10;99.90
35559;DHT22;21661;50.794;-1.066;2022-12-07T09:52:52;5.00;99.90
35559;DHT22;21661;50.794;-1.066;2022-12-07T09:55:28;5.00;99.90
35559;DHT22;21661;50.794;-1.066;2022-12-07T09:57:54;4.90;99.90
35559;DHT22;21661;50.794;-1.066;2022-12-07T10:00:22;5.00;99.90
35559;DHT22;21661;50.794;-1.066;2022-12-07T10:03:02;5.00;99.90
35559;DHT22;21661;50.794;-1.066;2022-12-07T10:05:31;5.00;99.90
35559;DHT22;21661;50.794;-1.066;2022-12-07T10:07:57;5.00;99.90
35559;DHT22;21661;50.794;-1.066;2022-12-07T10:10:26;4.90;99.90
35559;DHT22;21661;50.794;-1.066;2022-12-07T10:13:04;4.90;99.90
35559;DHT22;21661;50.794;-1.066;2022-12-07T10:15:56;4.90;99.90
35559;DHT22;21661;50.794;-1.066;2022-12-07T10:18:38;4.90;99.90
35559;DHT22;21661;50.794;-1.066;2022-12-07T10:21:20;5.10;99.90
35559;DHT22;21661;50.794;-1.066;2022-12-07T10:24:13;5.00;99.90
35559;DHT22;21661;50.794;-1.066;2022-12-07T10:29:15;4.90;99.90
35559;DHT22;21661;50.794;-1.066;2022-12-07T10:31:42;4.90;99.90
35559;DHT22;21661;50.794;-1.066;2022-12-07T10:34:33;4.90;99.90
35559;DHT22;21661;50.794;-1.066;2022-12-07T10:39:51;4.90;99.90
35559;DHT22;21661;50.794;-1.066;2022-12-07T10:45:12;4.90;99.90
35559;DHT22;21661;50.794;-1.066;2022-12-07T11:06:59;4.90;99.90
35559;DHT22;21661;50.794;-1.066;2022-12-07T11:15:28;5.00;99.90
35559;DHT22;21661;50.794;-1.066;2022-12-07T11:18:26;5.00;99.90
35559;DHT22;21661;50.794;-1.066;2022-12-07T11:29:37;5.00;99.90
35559;DHT22;21661;50.794;-1.066;2022-12-07T11:35:11;5.10;99.90
35559;DHT22;21661;50.794;-1.066;2022-12-07T11:37:40;5.20;99.90
35559;DHT22;21661;50.794;-1.066;2022-12-07T11:40:30;5.20;99.90
35559;DHT22;21661;50.794;-1.066;2022-12-07T11:43:15;5.20;99.90
35559;DHT22;21661;50.794;-1.066;2022-12-07T11:45:46;5.30;99.90
35559;DHT22;21661;50.794;-1.066;2022-12-07T11:48:18;5.20;99.90
35559;DHT22;21661;50.794;-1.066;2022-12-07T11:50:50;5.30;99.90
35559;DHT22;21661;50.794;-1.066;2022-12-07T11:53:21;5.40;99.90
35559;DHT22;21661;50.794;-1.066;2022-12-07T11:58:42;5.30;99.90
35559;DHT22;21661;50.794;-1.066;2022-12-07T12:03:51;5.40;99.90
35559;DHT22;21661;50.794;-1.066;2022-12-07T12:06:18;5.50;99.90
35559;DHT22;21661;50.794;-1.066;2022-12-07T12:22:59;5.60;99.90
35559;DHT22;21661;50.794;-1.066;2022-12-07T12:25:28;5.60;99.90
35559;DHT22;21661;50.794;-1.066;2022-12-07T12:27:58;5.70;99.90
35559;DHT22;21661;50.794;-1.066;2022-12-07T12:30:36;5.70;99.90
35559;DHT22;21661;50.794;-1.066;2022-12-07T12:35:39;5.80;99.90
35559;DHT22;21661;50.794;-1.066;2022-12-07T12:40:45;5.90;99.90
35559;DHT22;21661;50.794;-1.066;2022-12-07T12:51:45;5.90;99.90
35559;DHT22;21661;50.794;-1.066;2022-12-07T12:54:26;6.00;99.90
35559;DHT22;21661;50.794;-1.066;2022-12-07T12:59:57;6.10;99.90
35559;DHT22;21661;50.794;-1.066;2022-12-07T13:02:36;6.10;99.90
35559;DHT22;21661;50.794;-1.066;2022-12-07T13:13:03;6.20;99.90
35559;DHT22;21661;50.794;-1.066;2022-12-07T13:15:36;6.30;99.90
35559;DHT22;21661;50.794;-1.066;2022-12-07T13:26:23;6.50;99.90
35559;DHT22;21661;50.794;-1.066;2022-12-07T13:31:48;6.40;99.90
35559;DHT22;21661;50.794;-1.066;2022-12-07T13:34:37;6.50;99.90
35559;DHT22;21661;50.794;-1.066;2022-12-07T13:39:49;6.60;99.90
35559;DHT22;21661;50.794;-1.066;2022-12-07T13:44:56;6.60;99.90
35559;DHT22;21661;50.794;-1.066;2022-12-07T13:47:46;6.70;99.90
35559;DHT22;21661;50.794;-1.066;2022-12-07T13:50:31;6.70;99.90
35559;DHT22;21661;50.794;-1.066;2022-12-07T13:52:59;6.70;99.90
35559;DHT22;21661;50.794;-1.066;2022-12-07T13:55:26;6.80;99.90
35559;DHT22;21661;50.794;-1.066;2022-12-07T13:57:53;6.70;99.90
35559;DHT22;21661;50.794;-1.066;2022-12-07T14:00:27;6.70;99.90
35559;DHT22;21661;50.794;-1.066;2022-12-07T14:03:02;6.80;99.90
35559;DHT22;21661;50.794;-1.066;2022-12-07T14:05:33;6.80;99.90
35559;DHT22;21661;50.794;-1.066;2022-12-07T14:10:30;6.80;99.90
35559;DHT22;21661;50.794;-1.066;2022-12-07T14:12:56;6.80;99.90
35559;DHT22;21661;50.794;-1.066;2022-12-07T14:15:32;6.80;99.90
35559;DHT22;21661;50.794;-1.066;2022-12-07T14:18:00;6.80;99.90
35559;DHT22;21661;50.794;-1.066;2022-12-07T14:23:01;6.80;99.90
35559;DHT22;21661;50.794;-1.066;2022-12-07T14:25:48;6.80;99.90
35559;DHT22;21661;50.794;-1.066;2022-12-07T14:28:44;6.80;99.90
35559;DHT22;21661;50.794;-1.066;2022-12-07T14:31:23;6.70;99.90
35559;DHT22;21661;50.794;-1.066;2022-12-07T14:33:49;6.70;99.90
35559;DHT22;21661;50.794;-1.066;2022-12-07T14:36:15;6.60;99.90
35559;DHT22;21661;50.794;-1.066;2022-12-07T14:38:41;6.60;99.90
35559;DHT22;21661;50.794;-1.066;2022-12-07T14:41:13;6.50;99.90
35559;DHT22;21661;50.794;-1.066;2022-12-07T14:43:58;6.60;99.90
35559;DHT22;21661;50.794;-1.066;2022-12-07T14:46:24;6.60;99.90
35559;DHT22;21661;50.794;-1.066;2022-12-07T14:48:50;6.60;99.90
35559;DHT22;21661;50.794;-1.066;2022-12-07T14:51:16;6.60;99.90
35559;DHT22;21661;50.794;-1.066;2022-12-07T14:53:46;6.60;99.90
35559;DHT22;21661;50.794;-1.066;2022-12-07T14:56:13;6.70;99.90
35559;DHT22;21661;50.794;-1.066;2022-12-07T14:58:39;6.70;99.90
35559;DHT22;21661;50.794;-1.066;2022-12-07T15:01:05;6.60;99.90
35559;DHT22;21661;50.794;-1.066;2022-12-07T15:03:31;6.60;99.90
35559;DHT22;21661;50.794;-1.066;2022-12-07T15:05:57;6.60;99.90
35559;DHT22;21661;50.794;-1.066;2022-12-07T15:08:22;6.50;99.90
35559;DHT22;21661;50.794;-1.066;2022-12-07T15:10:49;6.50;99.90
35559;DHT22;21661;50.794;-1.066;2022-12-07T15:13:14;6.50;99.90
35559;DHT22;21661;50.794;-1.066;2022-12-07T15:15:59;6.40;99.90
35559;DHT22;21661;50.794;-1.066;2022-12-07T15:18:25;6.30;99.90
35559;DHT22;21661;50.794;-1.066;2022-12-07T15:20:51;6.30;99.90
35559;DHT22;21661;50.794;-1.066;2022-12-07T15:23:17;6.30;99.90
35559;DHT22;21661;50.794;-1.066;2022-12-07T15:25:44;6.30;99.90
35559;DHT22;21661;50.794;-1.066;2022-12-07T15:28:10;6.30;99.90
35559;DHT22;21661;50.794;-1.066;2022-12-07T15:30:40;6.30;99.90
35559;DHT22;21661;50.794;-1.066;2022-12-07T15:33:08;6.20;99.90
35559;DHT22;21661;50.794;-1.066;2022-12-07T15:35:42;6.10;99.90
35559;DHT22;21661;50.794;-1.066;2022-12-07T15:38:08;6.20;99.90
35559;DHT22;21661;50.794;-1.066;2022-12-07T15:40:33;6.20;99.90
35559;DHT22;21661;50.794;-1.066;2022-12-07T15:43:00;6.20;99.90
35559;DHT22;21661;50.794;-1.066;2022-12-07T15:45:26;6.20;99.90
35559;DHT22;21661;50.794;-1.066;2022-12-07T15:47:51;6.10;99.90
35559;DHT22;21661;50.794;-1.066;2022-12-07T15:50:17;6.10;99.90
35559;DHT22;21661;50.794;-1.066;2022-12-07T15:52:43;6.00;99.90
35559;DHT22;21661;50.794;-1.066;2022-12-07T15:55:09;6.00;99.90
35559;DHT22;21661;50.794;-1.066;2022-12-07T15:57:36;5.90;99.90
35559;DHT22;21661;50.794;-1.066;2022-12-07T16:00:03;5.90;99.90
35559;DHT22;21661;50.794;-1.066;2022-12-07T16:02:29;5.90;99.90
35559;DHT22;21661;50.794;-1.066;2022-12-07T16:04:55;5.90;99.90
35559;DHT22;21661;50.794;-1.066;2022-12-07T16:07:20;5.80;99.90
35559;DHT22;21661;50.794;-1.066;2022-12-07T16:09:46;5.80;99.90
35559;DHT22;21661;50.794;-1.066;2022-12-07T16:12:13;5.80;99.90
35559;DHT22;21661;50.794;-1.066;2022-12-07T16:14:39;5.70;99.90
35559;DHT22;21661;50.794;-1.066;2022-12-07T16:17:06;5.70;99.90
35559;DHT22;21661;50.794;-1.066;2022-12-07T16:19:32;5.70;99.90
35559;DHT22;21661;50.794;-1.066;2022-12-07T16:21:58;5.70;99.90
35559;DHT22;21661;50.794;-1.066;2022-12-07T16:24:24;5.60;99.90
35559;DHT22;21661;50.794;-1.066;2022-12-07T16:26:50;5.60;99.90
35559;DHT22;21661;50.794;-1.066;2022-12-07T16:29:18;5.60;99.90
35559;DHT22;21661;50.794;-1.066;2022-12-07T16:31:44;5.50;99.90
35559;DHT22;21661;50.794;-1.066;2022-12-07T16:34:10;5.50;99.90
35559;DHT22;21661;50.794;-1.066;2022-12-07T16:36:36;5.50;99.90
35559;DHT22;21661;50.794;-1.066;2022-12-07T16:39:02;5.50;99.90
35559;DHT22;21661;50.794;-1.066;2022-12-07T16:41:27;5.40;99.90
35559;DHT22;21661;50.794;-1.066;2022-12-07T16:43:53;5.40;99.90
35559;DHT22;21661;50.794;-1.066;2022-12-07T16:46:19;5.40;99.90
35559;DHT22;21661;50.794;-1.066;2022-12-07T16:48:44;5.30;99.90
35559;DHT22;21661;50.794;-1.066;2022-12-07T16:51:12;5.30;99.90
35559;DHT22;21661;50.794;-1.066;2022-12-07T16:53:40;5.20;99.90
35559;DHT22;21661;50.794;-1.066;2022-12-07T16:56:11;5.20;99.90
35559;DHT22;21661;50.794;-1.066;2022-12-07T16:58:37;5.20;99.90
35559;DHT22;21661;50.794;-1.066;2022-12-07T17:01:14;5.20;99.90
35559;DHT22;21661;50.794;-1.066;2022-12-07T17:03:40;5.20;99.90
35559;DHT22;21661;50.794;-1.066;2022-12-07T17:06:14;5.20;99.90
35559;DHT22;21661;50.794;-1.066;2022-12-07T17:08:40;5.20;99.90
35559;DHT22;21661;50.794;-1.066;2022-12-07T17:11:21;5.10;99.90
35559;DHT22;21661;50.794;-1.066;2022-12-07T17:13:46;5.10;99.90
35559;DHT22;21661;50.794;-1.066;2022-12-07T17:16:31;5.00;99.90
35559;DHT22;21661;50.794;-1.066;2022-12-07T17:18:57;5.10;99.90
35559;DHT22;21661;50.794;-1.066;2022-12-07T17:21:23;5.10;99.90
35559;DHT22;21661;50.794;-1.066;2022-12-07T17:23:49;5.10;99.90
35559;DHT22;21661;50.794;-1.066;2022-12-07T17:26:28;5.00;99.90
35559;DHT22;21661;50.794;-1.066;2022-12-07T17:28:54;5.00;99.90
35559;DHT22;21661;50.794;-1.066;2022-12-07T17:31:21;5.00;99.90
35559;DHT22;21661;50.794;-1.066;2022-12-07T17:33:47;5.00;99.90
35559;DHT22;21661;50.794;-1.066;2022-12-07T17:36:19;4.90;99.90
35559;DHT22;21661;50.794;-1.066;2022-12-07T17:38:45;4.90;99.90
35559;DHT22;21661;50.794;-1.066;2022-12-07T17:41:15;4.90;99.90
35559;DHT22;21661;50.794;-1.066;2022-12-07T17:44:01;4.90;99.90
35559;DHT22;21661;50.794;-1.066;2022-12-07T17:46:27;4.80;99.90
35559;DHT22;21661;50.794;-1.066;2022-12-07T17:48:56;4.80;99.90
35559;DHT22;21661;50.794;-1.066;2022-12-07T17:51:23;4.80;99.90
35559;DHT22;21661;50.794;-1.066;2022-12-07T17:54:07;4.80;99.90
35559;DHT22;21661;50.794;-1.066;2022-12-07T17:56:33;4.80;99.90
35559;DHT22;21661;50.794;-1.066;2022-12-07T17:58:58;4.80;99.90
35559;DHT22;21661;50.794;-1.066;2022-12-07T18:01:24;4.70;99.90